Time;durP1;ratioP1;P1;durP2;ratioP2;P2;SDS_P1;SDS_P2;PMS_P1;PMS_P2;Temp;Humidity;BMP_temperature;BMP_pressure;BME280_temperature;BME280_humidity;BME280_pressure;Samples;Min_cycle;Max_cycle;Signal;HPM_P1;HPM_P2
2023/04/11 00:00:05;;;;;;;15.18;4.93;;;;;;;8.73;100.00;100754.28;4970900;28;20472;-71
2023/04/11 00:02:33;;;;;;;15.70;4.53;;;;;;;8.73;100.00;100755.97;4969945;28;20019;-71
2023/04/11 00:04:59;;;;;;;19.60;4.78;;;;;;;8.75;100.00;100759.50;4957487;28;20379;-71
2023/04/11 00:07:25;;;;;;;14.10;4.72;;;;;;;8.72;100.00;100747.38;4970391;28;20038;-71
2023/04/11 00:09:50;;;;;;;18.00;4.97;;;;;;;8.70;100.00;100755.88;4970594;28;20033;-71
2023/04/11 00:12:15;;;;;;;15.20;5.22;;;;;;;8.70;100.00;100755.88;4970874;28;20034;-70
2023/04/11 00:14:44;;;;;;;18.00;4.70;;;;;;;8.69;100.00;100754.13;4970068;28;20217;-70
2023/04/11 00:17:13;;;;;;;19.45;5.03;;;;;;;8.68;100.00;100752.34;4970004;28;20023;-70
2023/04/11 00:19:38;;;;;;;20.75;5.13;;;;;;;8.70;100.00;100763.63;4957021;28;20030;-71
2023/04/11 00:22:03;;;;;;;16.23;5.00;;;;;;;8.69;100.00;100761.88;4969433;28;20165;-70
2023/04/11 00:24:29;;;;;;;22.20;6.07;;;;;;;8.67;100.00;100766.97;4969460;28;20090;-70
2023/04/11 00:26:55;;;;;;;19.13;6.32;;;;;;;8.66;100.00;100767.78;4969106;28;20487;-71
2023/04/11 00:29:21;;;;;;;16.67;5.05;;;;;;;8.63;100.00;100770.28;4969792;28;20027;-71
2023/04/11 00:31:46;;;;;;;25.45;6.28;;;;;;;8.59;100.00;100763.22;4970266;28;20026;-71
2023/04/11 00:34:12;;;;;;;21.25;6.00;;;;;;;8.55;100.00;100766.44;4969453;28;20015;-71
2023/04/11 00:36:39;;;;;;;18.83;5.78;;;;;;;8.49;100.00;100759.38;4970097;28;20086;-70
2023/04/11 00:39:04;;;;;;;19.92;6.10;;;;;;;8.47;100.00;100761.88;4969375;28;20026;-71
2023/04/11 00:41:30;;;;;;;23.45;5.20;;;;;;;8.43;100.00;100772.03;4969412;28;20426;-70
2023/04/11 00:43:56;;;;;;;23.75;7.00;;;;;;;8.38;100.00;100764.97;4988504;28;21596;-70
2023/04/11 00:46:22;;;;;;;18.45;5.00;;;;;;;8.38;100.00;100775.28;4987704;28;20084;-71
2023/04/11 00:48:47;;;;;;;17.15;5.10;;;;;;;8.33;100.00;100771.66;4988504;28;20474;-70
2023/04/11 00:51:16;;;;;;;20.23;5.85;;;;;;;8.29;100.00;100765.47;4987768;28;20113;-70
2023/04/11 00:53:42;;;;;;;23.98;5.93;;;;;;;8.26;100.00;100767.06;4988575;28;20027;-70
2023/04/11 00:56:08;;;;;;;19.85;5.47;;;;;;;8.25;100.00;100762.72;4988250;28;20117;-71
2023/04/11 00:58:36;;;;;;;22.27;5.75;;;;;;;8.22;100.00;100772.94;4988438;28;20374;-70
2023/04/11 01:01:07;;;;;;;22.75;6.05;;;;;;;8.21;100.00;100768.56;4988226;28;20026;-70
2023/04/11 01:03:33;;;;;;;18.38;5.10;;;;;;;8.23;100.00;100764.34;4987634;28;20037;-70
2023/04/11 01:05:59;;;;;;;29.15;6.55;;;;;;;8.22;100.00;100760.03;4985761;28;20026;-70
2023/04/11 01:08:25;;;;;;;25.73;6.32;;;;;;;8.22;100.00;100762.59;4969147;28;20030;-69
2023/04/11 01:10:50;;;;;;;24.60;6.65;;;;;;;8.22;100.00;100766.03;4969550;28;20089;-70
2023/04/11 01:13:16;;;;;;;19.45;5.60;;;;;;;8.22;100.00;100762.59;4967940;28;20031;-71
2023/04/11 01:15:41;;;;;;;21.67;5.97;;;;;;;8.19;100.00;100770.22;4969591;28;20050;-70
2023/04/11 01:18:07;;;;;;;23.33;5.68;;;;;;;8.18;100.00;100764.19;4969271;28;20101;-70
2023/04/11 01:20:33;;;;;;;21.27;6.07;;;;;;;8.15;100.00;100767.50;4969185;28;20463;-70
2023/04/11 01:23:01;;;;;;;23.17;6.32;;;;;;;8.15;100.00;100762.34;4969085;28;20146;-71
2023/04/11 01:25:27;;;;;;;24.90;6.70;;;;;;;8.16;100.00;100758.06;4969610;28;20450;-70
2023/04/11 01:27:52;;;;;;;24.13;5.38;;;;;;;8.11;100.00;100755.28;4969936;28;20113;-70
2023/04/11 01:30:17;;;;;;;27.50;7.03;;;;;;;8.09;100.00;100762.13;4971395;28;20050;-70
2023/04/11 01:32:42;;;;;;;20.63;5.53;;;;;;;8.11;100.00;100760.44;4973448;28;20077;-71
2023/04/11 01:35:10;;;;;;;18.27;5.20;;;;;;;8.08;100.00;100765.50;4972597;28;20102;-70
2023/04/11 01:37:35;;;;;;;22.40;5.55;;;;;;;8.05;100.00;100765.38;4972821;28;20026;-70
2023/04/11 01:40:01;;;;;;;23.67;6.40;;;;;;;8.04;100.00;100763.63;4973681;28;20058;-70
2023/04/11 01:42:28;;;;;;;23.35;5.50;;;;;;;8.03;100.00;100774.75;4973026;28;20431;-70
2023/04/11 01:44:55;;;;;;;22.73;5.82;;;;;;;8.00;100.00;100780.69;4973242;28;20455;-70
2023/04/11 01:47:21;;;;;;;20.90;6.32;;;;;;;7.99;100.00;100786.63;4973339;28;20025;-70
2023/04/11 01:49:46;;;;;;;26.38;5.82;;;;;;;7.99;100.00;100780.59;4973172;28;20404;-70
2023/04/11 01:52:11;;;;;;;22.67;6.22;;;;;;;7.95;100.00;100789.03;4973017;28;20019;-70
2023/04/11 01:54:36;;;;;;;23.15;5.15;;;;;;;7.93;100.00;100795.00;4972545;28;20073;-70
2023/04/11 01:57:02;;;;;;;26.20;6.57;;;;;;;7.90;100.00;100797.47;4971006;28;20027;-70
2023/04/11 01:59:28;;;;;;;26.13;6.20;;;;;;;7.88;100.00;100798.22;4971233;28;20027;-70
2023/04/11 02:01:53;;;;;;;26.90;7.40;;;;;;;7.85;100.00;100798.97;4971811;28;20494;-70
2023/04/11 02:04:18;;;;;;;17.42;5.95;;;;;;;7.85;100.00;100798.97;4971612;28;20023;-69
2023/04/11 02:06:44;;;;;;;24.35;5.82;;;;;;;7.83;100.00;100804.88;4971525;28;20030;-70
2023/04/11 02:09:09;;;;;;;24.38;6.38;;;;;;;7.83;100.00;100800.59;4971326;28;20737;-70
2023/04/11 02:11:35;;;;;;;20.40;5.40;;;;;;;7.83;100.00;100805.75;4971518;28;20188;-70
2023/04/11 02:14:01;;;;;;;26.48;6.18;;;;;;;7.81;100.00;100808.28;4984304;28;20050;-70
2023/04/11 02:16:28;;;;;;;23.48;6.00;;;;;;;7.79;100.00;100803.84;4971580;28;20106;-70
2023/04/11 02:18:54;;;;;;;23.58;6.72;;;;;;;7.79;100.00;100814.16;4970393;28;20022;-70
2023/04/11 02:21:20;;;;;;;21.42;6.25;;;;;;;7.79;100.00;100814.16;4971573;28;20034;-70
2023/04/11 02:23:45;;;;;;;23.55;6.22;;;;;;;7.76;100.00;100816.63;4972022;28;20027;-70
2023/04/11 02:26:10;;;;;;;22.35;5.63;;;;;;;7.76;100.00;100816.63;4971810;28;20110;-70
2023/04/11 02:28:36;;;;;;;25.30;5.35;;;;;;;7.75;100.00;100817.44;4972115;28;20022;-70
2023/04/11 02:31:02;;;;;;;22.48;5.75;;;;;;;7.74;100.00;100820.84;4971255;28;20133;-70
2023/04/11 02:33:28;;;;;;;23.20;4.90;;;;;;;7.71;100.00;100812.97;4971515;28;20486;-70
2023/04/11 02:35:53;;;;;;;21.52;5.57;;;;;;;7.72;100.00;100822.50;4971234;28;20124;-70
2023/04/11 02:38:19;;;;;;;20.40;5.72;;;;;;;7.73;100.00;100819.09;4984017;28;20018;-70
2023/04/11 02:40:44;;;;;;;20.80;5.60;;;;;;;7.74;100.00;100820.84;4969896;28;20288;-70
2023/04/11 02:43:10;;;;;;;22.85;5.28;;;;;;;7.76;100.00;100814.03;4970855;28;20387;-70
2023/04/11 02:45:35;;;;;;;21.42;6.18;;;;;;;7.76;100.00;100819.19;4971147;28;20022;-70
2023/04/11 02:48:00;;;;;;;17.42;4.65;;;;;;;7.78;100.00;100818.47;4972090;28;20027;-69
2023/04/11 02:50:26;;;;;;;20.08;4.95;;;;;;;7.78;100.00;100818.47;4970822;28;20507;-70
2023/04/11 02:52:51;;;;;;;25.75;5.38;;;;;;;7.80;100.00;100818.53;4971513;28;20027;-70
2023/04/11 02:55:17;;;;;;;19.58;5.05;;;;;;;7.77;100.00;100826.16;4970751;28;20025;-70
2023/04/11 02:57:42;;;;;;;16.63;4.70;;;;;;;7.79;100.00;100825.38;4970719;28;20035;-70
2023/04/11 03:00:08;;;;;;;24.05;4.95;;;;;;;7.80;100.00;100821.09;4970396;28;20030;-70
2023/04/11 03:02:34;;;;;;;17.27;3.92;;;;;;;7.79;100.00;100824.50;4984064;28;20117;-70
2023/04/11 03:05:03;;;;;;;16.33;5.15;;;;;;;7.77;100.00;100823.56;4982918;28;20030;-70
2023/04/11 03:07:31;;;;;;;15.98;4.40;;;;;;;7.75;100.00;100827.78;4970612;28;20085;-70
2023/04/11 03:09:57;;;;;;;18.98;4.20;;;;;;;7.73;100.00;100830.28;4970344;28;20458;-69
2023/04/11 03:12:22;;;;;;;14.43;4.25;;;;;;;7.73;100.00;100830.28;4971162;28;20026;-70
2023/04/11 03:14:47;;;;;;;16.83;3.67;;;;;;;7.74;100.00;100836.31;4989386;28;20109;-70
2023/04/11 03:17:13;;;;;;;13.63;3.88;;;;;;;7.72;100.00;100832.81;4975747;28;20113;-69
2023/04/11 03:19:38;;;;;;;19.10;3.92;;;;;;;7.73;100.00;100837.13;4970070;28;20045;-70
2023/04/11 03:22:04;;;;;;;14.50;3.38;;;;;;;7.72;100.00;100836.25;4969226;28;20026;-69
2023/04/11 03:24:31;;;;;;;16.35;4.15;;;;;;;7.71;100.00;100846.50;4970409;28;20490;-70
2023/04/11 03:26:56;;;;;;;16.33;3.70;;;;;;;7.69;100.00;100849.91;4971109;28;20525;-69
2023/04/11 03:29:22;;;;;;;13.25;3.67;;;;;;;7.71;100.00;100851.66;4970514;28;20084;-70
2023/04/11 03:31:47;;;;;;;15.93;3.30;;;;;;;7.71;100.00;100867.13;4971435;28;20062;-70
2023/04/11 03:34:13;;;;;;;17.90;4.22;;;;;;;7.70;100.00;100855.94;4970652;28;20361;-70
2023/04/11 03:36:38;;;;;;;12.50;2.78;;;;;;;7.69;100.00;100865.38;4971273;28;20045;-70
2023/04/11 03:39:03;;;;;;;17.77;3.50;;;;;;;7.69;100.00;100859.34;4970773;28;20117;-70
2023/04/11 03:41:28;;;;;;;14.75;2.45;;;;;;;7.69;100.00;100869.66;4971006;28;20031;-70
2023/04/11 03:43:54;;;;;;;11.57;2.63;;;;;;;7.68;100.00;100861.03;4969790;28;20042;-70
2023/04/11 03:46:20;;;;;;;16.55;2.58;;;;;;;7.69;100.00;100875.72;4970670;28;20073;-70
2023/04/11 03:48:46;;;;;;;17.08;3.13;;;;;;;7.67;100.00;100872.16;4970640;28;20422;-70
2023/04/11 03:51:11;;;;;;;13.85;3.45;;;;;;;7.66;100.00;100875.53;4971152;28;20029;-70
2023/04/11 03:53:37;;;;;;;19.20;2.63;;;;;;;7.65;100.00;100878.94;4970390;28;20431;-70
2023/04/11 03:56:03;;;;;;;10.07;2.50;;;;;;;7.63;100.00;100875.41;4971465;28;20027;-70
2023/04/11 03:58:28;;;;;;;14.68;2.85;;;;;;;7.62;100.00;100870.19;4971691;28;20035;-70
2023/04/11 04:00:53;;;;;;;11.05;2.65;;;;;;;7.61;100.00;100879.63;4970865;28;20093;-70
2023/04/11 04:03:19;;;;;;;10.43;2.50;;;;;;;7.55;100.00;100872.50;4970551;28;20025;-70
2023/04/11 04:05:44;;;;;;;12.55;2.95;;;;;;;7.55;100.00;100876.78;4970376;28;20158;-70
2023/04/11 04:08:09;;;;;;;16.15;3.33;;;;;;;7.53;100.00;100881.88;4970783;28;20522;-70
2023/04/11 04:10:35;;;;;;;15.95;3.08;;;;;;;7.51;100.00;100880.91;4970095;28;20101;-70
2023/04/11 04:13:00;;;;;;;13.70;2.53;;;;;;;7.48;100.00;100879.91;4969907;28;20045;-70
2023/04/11 04:15:25;;;;;;;8.88;2.10;;;;;;;7.47;100.00;100872.94;4970041;28;20409;-70
2023/04/11 04:17:51;;;;;;;14.10;3.08;;;;;;;7.46;100.00;100877.25;4974883;28;20455;-69
2023/04/11 04:20:16;;;;;;;11.43;3.05;;;;;;;7.43;100.00;100888.28;4988591;28;20018;-70
2023/04/11 04:22:41;;;;;;;12.30;3.58;;;;;;;7.42;100.00;100890.81;4988314;28;20518;-70
2023/04/11 04:25:11;;;;;;;10.15;2.35;;;;;;;7.39;100.00;100891.56;4988805;28;20026;-70
2023/04/11 04:27:42;;;;;;;11.48;2.78;;;;;;;7.39;100.00;100896.72;4988115;28;20041;-70
2023/04/11 04:30:14;;;;;;;12.85;2.85;;;;;;;7.39;100.00;100891.56;4988427;28;20109;-70
2023/04/11 04:32:43;;;;;;;18.13;4.03;;;;;;;7.36;100.00;100890.53;4988647;28;20026;-69
2023/04/11 04:35:09;;;;;;;13.38;3.08;;;;;;;7.32;100.00;100904.97;4987117;28;20024;-70
2023/04/11 04:37:38;;;;;;;12.60;2.97;;;;;;;7.28;100.00;100911.69;4987784;28;20030;-69
2023/04/11 04:40:07;;;;;;;15.05;4.05;;;;;;;7.27;100.00;100911.59;4987203;28;20053;-70
2023/04/11 04:42:35;;;;;;;14.27;3.75;;;;;;;7.23;100.00;100920.91;4987610;28;20161;-70
2023/04/11 04:45:01;;;;;;;17.40;3.72;;;;;;;7.22;100.00;100921.69;4986295;28;20033;-69
2023/04/11 04:47:31;;;;;;;11.80;3.40;;;;;;;7.19;100.00;100925.03;4986927;28;20038;-70
2023/04/11 04:49:57;;;;;;;12.50;3.47;;;;;;;7.16;100.00;100922.28;4985322;28;20084;-69
2023/04/11 04:52:24;;;;;;;15.23;3.88;;;;;;;7.14;100.00;100926.47;4986878;28;20816;-70
2023/04/11 04:54:49;;;;;;;14.90;5.05;;;;;;;7.13;100.00;100929.00;4959226;28;20034;-70
2023/04/11 04:57:15;;;;;;;12.57;3.03;;;;;;;7.09;100.00;100939.16;4956938;28;20204;-69
2023/04/11 04:59:40;;;;;;;13.43;3.33;;;;;;;7.08;100.00;100939.09;4965013;28;20035;-70
2023/04/11 05:02:05;;;;;;;18.73;3.80;;;;;;;7.08;100.00;100941.66;4960896;28;20089;-69
2023/04/11 05:04:33;;;;;;;12.27;3.28;;;;;;;7.07;100.00;100945.03;4963567;28;20117;-69
2023/04/11 05:06:59;;;;;;;11.98;2.65;;;;;;;7.06;100.00;100958.75;4972920;28;20055;-69
2023/04/11 05:09:24;;;;;;;18.00;3.88;;;;;;;7.02;100.00;100949.97;4973227;28;20018;-69
2023/04/11 05:11:50;;;;;;;17.23;3.92;;;;;;;7.03;100.00;100958.59;4977458;28;20029;-70
2023/04/11 05:14:16;;;;;;;16.48;2.97;;;;;;;7.02;100.00;100956.81;4981620;28;20046;-70
2023/04/11 05:16:41;;;;;;;14.73;3.50;;;;;;;6.97;100.00;100957.50;4976519;28;20491;-70
2023/04/11 05:19:07;;;;;;;11.60;2.88;;;;;;;6.94;100.00;100959.91;4965424;28;20027;-70
2023/04/11 05:21:32;;;;;;;16.02;2.78;;;;;;;6.94;100.00;100959.03;4965486;28;20050;-70
2023/04/11 05:23:57;;;;;;;11.73;3.05;;;;;;;6.91;100.00;100967.50;4973262;28;20023;-70
2023/04/11 05:26:23;;;;;;;12.45;3.28;;;;;;;6.90;100.00;100972.56;4977624;28;20105;-70
2023/04/11 05:28:48;;;;;;;13.45;3.72;;;;;;;6.87;100.00;100978.47;4980168;28;20499;-70
2023/04/11 05:31:13;;;;;;;10.35;2.30;;;;;;;6.90;100.00;100972.56;4972807;28;20058;-70
2023/04/11 05:33:40;;;;;;;12.25;3.22;;;;;;;6.90;100.00;100972.56;4972016;28;20014;-70
2023/04/11 05:36:06;;;;;;;14.13;3.72;;;;;;;6.90;100.00;100978.63;4967728;28;20289;-70
2023/04/11 05:38:32;;;;;;;12.32;2.88;;;;;;;6.95;100.00;100981.41;4986974;28;20026;-69
2023/04/11 05:40:58;;;;;;;12.60;2.80;;;;;;;6.99;100.00;100987.59;4982851;28;20023;-69
2023/04/11 05:43:23;;;;;;;12.05;3.15;;;;;;;7.01;100.00;100993.72;4987601;28;20026;-70
2023/04/11 05:45:48;;;;;;;16.38;3.85;;;;;;;7.01;100.00;100991.13;4978147;28;20119;-70
2023/04/11 05:48:14;;;;;;;11.23;2.40;;;;;;;7.00;100.00;100994.53;4979694;28;20730;-70
2023/04/11 05:50:40;;;;;;;14.40;3.33;;;;;;;7.01;100.00;101004.91;4979438;28;20390;-71
2023/04/11 05:53:06;;;;;;;9.30;2.40;;;;;;;7.06;100.00;101007.72;4986878;28;20037;-70
2023/04/11 05:55:31;;;;;;;9.00;2.33;;;;;;;7.10;100.00;101001.91;4981609;28;20027;-70
2023/04/11 05:57:56;;;;;;;12.38;3.47;;;;;;;7.14;100.00;101016.69;4986718;28;20471;-70
2023/04/11 06:00:23;;;;;;;8.98;2.53;;;;;;;7.20;100.00;101014.41;4982535;28;20460;-71
2023/04/11 06:02:49;;;;;;;14.10;2.80;;;;;;;7.26;100.00;101021.56;4985492;28;20081;-70
2023/04/11 06:05:16;;;;;;;15.23;2.47;;;;;;;7.32;100.00;101028.72;4981321;28;20543;-70
2023/04/11 06:07:42;;;;;;;12.50;1.92;;;;;;;7.33;100.00;101020.16;4983983;28;20498;-70
2023/04/11 06:10:08;;;;;;;13.98;2.95;;;;;;;7.36;100.00;101022.88;4981023;28;20022;-70
2023/04/11 06:12:34;;;;;;;11.68;2.20;;;;;;;7.39;100.00;101035.97;4985835;28;20022;-69
2023/04/11 06:14:59;;;;;;;16.48;3.05;;;;;;;7.35;100.00;101034.03;4980833;28;20047;-70
2023/04/11 06:17:25;;;;;;;6.95;2.75;;;;;;;7.37;100.00;101039.25;4974766;28;20113;-70
2023/04/11 06:19:50;;;;;;;9.15;2.50;;;;;;;7.37;100.00;101027.25;4970804;28;20035;-70
2023/04/11 06:22:15;;;;;;;12.63;3.33;;;;;;;7.45;100.00;101031.06;4985246;28;20165;-70
2023/04/11 06:24:41;;;;;;;10.73;2.35;;;;;;;7.53;100.00;101033.13;4989240;28;20034;-70
2023/04/11 06:27:09;;;;;;;13.02;2.90;;;;;;;7.68;100.00;101028.69;4975783;28;20030;-70
2023/04/11 06:29:39;;;;;;;14.25;3.00;;;;;;;7.88;100.00;101035.63;4979562;28;20041;-70
2023/04/11 06:32:05;;;;;;;8.43;2.72;;;;;;;8.08;100.00;101033.94;4975031;28;20438;-70
2023/04/11 06:34:30;;;;;;;11.32;3.17;;;;;;;8.21;100.00;101029.31;4970455;28;20480;-70
2023/04/11 06:36:56;;;;;;;8.75;2.80;;;;;;;8.36;100.00;101035.19;4971466;28;20041;-70
2023/04/11 06:39:21;;;;;;;10.95;3.08;;;;;;;8.45;100.00;101041.56;4971138;28;20030;-70
2023/04/11 06:41:47;;;;;;;9.65;2.33;;;;;;;8.63;100.00;101042.38;4970762;28;20039;-70
2023/04/11 06:44:12;;;;;;;13.90;3.08;;;;;;;8.82;100.00;101044.88;4970563;28;20023;-70
2023/04/11 06:46:38;;;;;;;9.05;2.20;;;;;;;8.96;100.00;101045.47;4970844;28;20030;-70
2023/04/11 06:49:06;;;;;;;9.93;2.13;;;;;;;9.16;100.00;101050.56;4971490;28;20088;-70
2023/04/11 06:51:34;;;;;;;10.18;2.80;;;;;;;9.27;100.00;101059.66;4970616;28;20479;-69
2023/04/11 06:54:01;;;;;;;9.57;2.33;;;;;;;9.39;100.00;101059.28;4971355;28;20455;-70
2023/04/11 06:56:26;;;;;;;11.77;2.65;;;;;;;9.53;100.00;101070.19;4983388;28;20034;-70
2023/04/11 06:58:51;;;;;;;10.50;2.20;;;;;;;9.81;100.00;101071.28;4970494;28;20089;-71
2023/04/11 07:01:19;;;;;;;9.95;3.03;;;;;;;9.97;100.00;101064.97;4970757;28;20434;-70
2023/04/11 07:03:46;;;;;;;11.82;2.35;;;;;;;10.15;100.00;101068.19;4970997;28;20023;-70
2023/04/11 07:06:11;;;;;;;10.18;3.28;;;;;;;10.26;100.00;101073.78;4969080;28;20118;-70
2023/04/11 07:08:37;;;;;;;10.82;3.55;;;;;;;10.41;100.00;101065.69;4968874;28;20031;-70
2023/04/11 07:11:02;;;;;;;10.32;2.20;;;;;;;10.72;100.00;101069.41;4970324;28;20034;-71
2023/04/11 07:13:27;;;;;;;10.25;2.38;;;;;;;10.91;100.00;101067.47;4969688;28;20081;-71
2023/04/11 07:15:53;;;;;;;12.60;3.20;;;;;;;10.84;98.17;101083.63;4969947;28;20026;-70
2023/04/11 07:18:18;;;;;;;9.23;2.72;;;;;;;10.86;98.40;101087.16;4979000;28;20390;-70
2023/04/11 07:20:43;;;;;;;10.60;3.17;;;;;;;10.65;96.73;101085.59;4988701;28;20077;-70
2023/04/11 07:23:08;;;;;;;11.38;2.70;;;;;;;10.56;98.93;101092.19;4989450;28;20030;-70
2023/04/11 07:25:34;;;;;;;9.77;2.28;;;;;;;10.79;100.00;101096.44;4974561;28;20034;-70
2023/04/11 07:27:59;;;;;;;13.30;3.28;;;;;;;10.84;97.50;101100.06;4969749;28;20026;-71
2023/04/11 07:30:25;;;;;;;13.23;2.88;;;;;;;10.87;97.08;101097.59;4970754;28;20089;-70
2023/04/11 07:32:51;;;;;;;11.90;3.42;;;;;;;10.74;96.25;101101.44;4989621;28;20062;-71
2023/04/11 07:35:17;;;;;;;9.80;3.20;;;;;;;10.51;95.79;101098.91;4988604;28;20061;-70
2023/04/11 07:37:42;;;;;;;17.70;4.72;;;;;;;10.32;97.57;101103.41;4989048;28;20035;-70
2023/04/11 07:40:13;;;;;;;15.38;3.03;;;;;;;10.20;98.26;101111.56;4987215;28;20482;-71
2023/04/11 07:42:39;;;;;;;15.18;2.97;;;;;;;10.19;100.00;101119.28;4988736;28;20030;-70
2023/04/11 07:45:05;;;;;;;8.65;2.50;;;;;;;10.16;97.80;101111.41;4987047;28;20026;-70
2023/04/11 07:47:31;;;;;;;13.30;3.17;;;;;;;10.47;98.83;101112.53;4988449;28;20026;-70
2023/04/11 07:49:57;;;;;;;11.75;3.40;;;;;;;10.70;97.00;101109.97;4986096;28;20045;-70
2023/04/11 07:52:22;;;;;;;8.90;2.47;;;;;;;11.10;96.05;101104.41;4988088;28;20356;-70
2023/04/11 07:54:48;;;;;;;10.48;2.40;;;;;;;11.34;92.09;101109.53;4986323;28;20021;-70
2023/04/11 07:57:13;;;;;;;10.00;2.92;;;;;;;11.31;88.63;101108.53;4987824;28;20226;-71
2023/04/11 07:59:39;;;;;;;9.55;3.35;;;;;;;11.26;89.54;101116.19;4986675;28;20022;-70
2023/04/11 08:02:06;;;;;;;8.70;2.20;;;;;;;11.26;92.14;101117.03;4988172;28;20038;-70
2023/04/11 08:04:32;;;;;;;9.20;2.60;;;;;;;11.45;89.49;101115.06;4986900;28;20027;-70
2023/04/11 08:06:58;;;;;;;6.72;2.20;;;;;;;11.62;88.96;101123.38;4987953;28;20436;-70
2023/04/11 08:09:23;;;;;;;12.45;2.58;;;;;;;11.89;90.94;101124.25;4987260;28;20029;-71
2023/04/11 08:11:48;;;;;;;9.55;2.53;;;;;;;11.97;86.29;101132.25;4988363;28;20437;-70
2023/04/11 08:14:13;;;;;;;6.60;2.53;;;;;;;12.18;86.66;101126.84;4986637;28;20085;-71
2023/04/11 08:16:39;;;;;;;9.82;2.50;;;;;;;12.24;84.59;101119.25;4978691;28;20380;-71
2023/04/11 08:19:04;;;;;;;5.38;1.50;;;;;;;12.44;83.58;101129.34;4968974;28;20034;-70
2023/04/11 08:21:30;;;;;;;7.25;2.08;;;;;;;12.07;77.50;101143.81;4969738;28;20035;-70
2023/04/11 08:23:55;;;;;;;6.68;2.45;;;;;;;12.05;81.12;101145.47;4969703;28;20026;-70
2023/04/11 08:26:20;;;;;;;8.98;2.08;;;;;;;11.79;80.05;101146.41;4969701;28;20383;-70
2023/04/11 08:28:45;;;;;;;5.93;2.42;;;;;;;11.64;81.57;101139.91;4969716;28;20395;-70
2023/04/11 08:31:11;;;;;;;8.63;2.10;;;;;;;11.86;83.33;101150.09;4968705;28;20049;-70
2023/04/11 08:33:37;;;;;;;7.55;2.30;;;;;;;11.93;78.66;101161.53;4969150;28;20034;-70
2023/04/11 08:36:04;;;;;;;5.97;1.83;;;;;;;11.77;76.91;101161.97;4969683;28;20511;-70
2023/04/11 08:38:29;;;;;;;13.38;2.78;;;;;;;11.66;81.18;101163.31;4971568;28;20050;-71
2023/04/11 08:40:55;;;;;;;8.93;2.15;;;;;;;11.97;79.57;101169.50;4988825;28;20113;-69
2023/04/11 08:43:21;;;;;;;9.05;2.15;;;;;;;12.20;77.12;101171.06;4975655;28;20097;-70
2023/04/11 08:45:46;;;;;;;8.13;1.98;;;;;;;12.52;76.63;101172.88;4988378;28;20023;-70
2023/04/11 08:48:11;;;;;;;6.15;1.75;;;;;;;12.72;77.47;101171.72;4988122;28;20364;-70
2023/04/11 08:50:39;;;;;;;9.15;2.35;;;;;;;12.95;73.29;101168.03;4980319;28;20041;-71
2023/04/11 08:53:07;;;;;;;8.48;1.90;;;;;;;12.69;71.56;101170.75;4969627;28;20026;-70
2023/04/11 08:55:32;;;;;;;11.82;2.33;;;;;;;12.56;71.64;101174.72;4969836;28;20018;-70
2023/04/11 08:58:01;;;;;;;6.75;1.77;;;;;;;12.54;75.97;101169.47;4968799;28;20069;-70
2023/04/11 09:00:28;;;;;;;4.95;1.85;;;;;;;12.80;78.24;101165.88;4968892;28;20042;-71
2023/04/11 09:03:01;;;;;;;5.53;1.70;;;;;;;13.18;72.55;101160.84;4971733;28;20494;-70
2023/04/11 09:05:28;;;;;;;6.50;1.55;;;;;;;13.32;70.55;101155.09;4988285;28;20026;-71
2023/04/11 09:07:53;;;;;;;6.15;1.70;;;;;;;13.52;70.21;101163.47;4971780;28;20030;-71
2023/04/11 09:10:20;;;;;;;6.47;1.42;;;;;;;13.65;68.61;101153.34;4969338;28;20030;-70
2023/04/11 09:12:45;;;;;;;6.75;1.60;;;;;;;13.80;68.03;101158.03;4985362;28;20479;-71
2023/04/11 09:15:22;;;;;;;8.93;1.83;;;;;;;13.93;69.10;101167.91;4988235;28;20049;-70
2023/04/11 09:17:48;;;;;;;6.90;1.80;;;;;;;13.93;65.83;101175.72;4970525;28;20088;-71
2023/04/11 09:20:24;;;;;;;6.47;1.45;;;;;;;13.79;69.13;101175.41;4969324;28;20034;-71
2023/04/11 09:22:52;;;;;;;7.43;1.98;;;;;;;13.89;68.12;101170.38;4969136;28;20093;-71
2023/04/11 09:25:18;;;;;;;8.73;1.58;;;;;;;13.82;67.88;101174.56;4969369;28;20033;-71
2023/04/11 09:27:44;;;;;;;6.13;1.70;;;;;;;13.84;67.51;101165.06;4968995;28;20086;-70
2023/04/11 09:30:25;;;;;;;6.40;2.05;;;;;;;13.93;66.52;101182.63;4982134;28;20034;-71
2023/04/11 09:32:52;;;;;;;5.28;1.88;;;;;;;14.04;66.28;101185.50;4957382;28;20069;-70
2023/04/11 09:35:19;;;;;;;7.80;1.75;;;;;;;13.89;62.62;101191.22;4980423;28;20030;-70
2023/04/11 09:37:54;;;;;;;7.50;1.85;;;;;;;13.93;65.40;101187.84;4977589;28;20271;-71
2023/04/11 09:40:30;;;;;;;7.75;1.70;;;;;;;14.27;65.10;101182.53;4987696;28;20319;-71
2023/04/11 09:43:04;;;;;;;8.82;1.70;;;;;;;14.45;64.12;101184.66;4988302;28;20037;-71
2023/04/11 09:45:30;;;;;;;6.28;1.83;;;;;;;14.64;65.55;101185.91;4988011;28;20033;-71
2023/04/11 09:47:57;;;;;;;4.80;1.13;;;;;;;14.74;62.76;101179.19;4987340;28;20487;-70
2023/04/11 09:50:26;;;;;;;3.20;1.02;;;;;;;14.61;57.76;101191.06;4988087;28;20023;-71
2023/04/11 09:52:54;;;;;;;6.82;1.40;;;;;;;14.49;58.37;101188.22;4991838;28;20033;-71
2023/04/11 09:55:21;;;;;;;6.68;1.55;;;;;;;14.29;58.43;101191.25;4966449;28;20026;-71
2023/04/11 09:57:51;;;;;;;7.95;1.60;;;;;;;14.04;57.42;101194.22;4990764;28;20386;-71
2023/04/11 10:00:18;;;;;;;5.80;1.35;;;;;;;14.06;57.60;101183.81;4991908;28;20022;-71
2023/04/11 10:02:47;;;;;;;6.80;1.55;;;;;;;13.72;56.23;101172.59;4990955;28;20418;-71
2023/04/11 10:05:14;;;;;;;5.28;1.52;;;;;;;13.83;61.53;101180.66;4991917;28;20022;-70
2023/04/11 10:08:03;;;;;;;5.05;1.33;;;;;;;13.97;61.91;101194.91;4991243;28;20022;-71
2023/04/11 10:10:28;;;;;;;9.73;1.65;;;;;;;14.02;59.25;101189.78;4971865;28;20045;-71
2023/04/11 10:12:54;;;;;;;6.18;1.13;;;;;;;13.95;56.69;101193.09;4990484;28;20093;-71
2023/04/11 10:15:20;;;;;;;4.65;1.63;;;;;;;13.97;57.63;101194.91;4991014;28;20069;-70
2023/04/11 10:18:11;;;;;;;6.55;1.60;;;;;;;14.10;59.60;101189.97;4973984;28;20018;-71
2023/04/11 10:20:42;;;;;;;7.80;1.70;;;;;;;14.16;57.90;101196.19;4971813;28;20297;-71
2023/04/11 10:23:08;;;;;;;5.45;1.38;;;;;;;14.31;57.83;101189.59;4972423;28;20387;-71
2023/04/11 10:25:54;;;;;;;5.68;1.50;;;;;;;14.31;55.46;101189.59;4973659;28;20416;-71
2023/04/11 10:28:34;;;;;;;5.85;1.33;;;;;;;14.42;59.35;101184.59;4980657;28;20401;-72
2023/04/11 10:31:12;;;;;;;5.35;1.45;;;;;;;14.42;60.30;101192.44;4977816;28;20026;-71
2023/04/11 10:33:39;;;;;;;8.60;1.67;;;;;;;14.37;59.28;101192.31;4975589;28;20023;-71
2023/04/11 10:36:10;;;;;;;10.43;2.28;;;;;;;14.26;58.74;101191.22;4972109;28;20026;-71
2023/04/11 10:38:50;;;;;;;6.20;1.20;;;;;;;14.08;57.67;101195.16;4971751;28;20029;-71
2023/04/11 10:41:21;;;;;;;5.55;1.20;;;;;;;14.07;60.38;101188.16;4972111;28;20034;-72
2023/04/11 10:43:47;;;;;;;;;;;;;;;13.95;57.43;101193.09;4972695;28;20174;-71
2023/04/11 10:46:18;;;;;;;9.10;1.52;;;;;;;13.87;55.93;101183.38;4971591;28;20005;-71
2023/04/11 10:48:56;;;;;;;4.53;1.25;;;;;;;13.83;56.36;101183.28;4971178;28;20023;-71
2023/04/11 10:51:23;;;;;;;3.17;0.98;;;;;;;13.91;57.60;101193.03;4972812;28;20030;-71
2023/04/11 10:53:48;;;;;;;3.55;1.02;;;;;;;14.09;56.20;101203.84;4971659;28;20034;-70
2023/04/11 10:56:13;;;;;;;6.53;1.30;;;;;;;14.33;56.21;101198.31;4972520;28;20391;-71
2023/04/11 10:58:39;;;;;;;4.95;1.23;;;;;;;14.34;56.63;101188.75;4971143;28;20569;-71
2023/04/11 11:01:13;;;;;;;5.68;1.20;;;;;;;14.08;53.06;101191.66;4972349;28;20030;-72
2023/04/11 11:03:38;;;;;;;4.80;1.50;;;;;;;14.08;54.13;101202.09;4970085;28;20058;-71
2023/04/11 11:06:08;;;;;;;3.22;1.00;;;;;;;14.20;56.67;101197.16;4972255;28;20065;-71
2023/04/11 11:08:40;;;;;;;4.78;1.27;;;;;;;14.05;53.16;101198.56;4971856;28;20407;-71
2023/04/11 11:11:08;;;;;;;5.95;1.55;;;;;;;14.06;55.86;101194.25;4972228;28;20077;-71
2023/04/11 11:13:40;;;;;;;4.60;1.10;;;;;;;14.11;52.91;101191.72;4971228;28;20078;-71
2023/04/11 11:16:07;;;;;;;5.47;0.95;;;;;;;14.22;54.25;101189.38;4972439;28;20543;-71